createdAt,value
2019-02-23T00:04:32.890Z,13.81
2019-02-23T00:10:27.928Z,14.82
2019-02-23T00:16:22.903Z,15.44
2019-02-23T00:22:17.931Z,16.28
2019-02-23T00:28:12.901Z,16.62
2019-02-23T00:34:07.895Z,15.2
2019-02-23T00:40:02.894Z,16.33
2019-02-23T00:45:57.893Z,21.4
2019-02-23T00:51:52.893Z,20.11
2019-02-23T00:57:47.924Z,21.92
2019-02-23T01:03:42.913Z,18.01
2019-02-23T01:09:37.954Z,17.39
2019-02-23T01:15:32.933Z,17.22
2019-02-23T01:21:27.936Z,16.48
2019-02-23T01:27:22.931Z,15.41
2019-02-23T01:33:17.911Z,15.32
2019-02-23T01:39:12.926Z,16.5
2019-02-23T01:45:07.932Z,16.59
2019-02-23T01:51:02.934Z,16.6
2019-02-23T01:56:57.918Z,16.66
2019-02-23T02:02:52.937Z,15.51
2019-02-23T02:08:47.990Z,15.97
2019-02-23T02:14:42.973Z,17.01
2019-02-23T02:20:37.963Z,15.8
2019-02-23T02:26:32.945Z,16.26
2019-02-23T02:32:27.960Z,18.67
2019-02-23T02:38:22.952Z,22.42
2019-02-23T02:44:17.956Z,27.18
2019-02-23T02:50:23.556Z,20.25
2019-02-23T02:56:07.972Z,28.76
2019-02-23T03:02:02.968Z,19.93
2019-02-23T03:07:57.979Z,25.21
2019-02-23T03:13:52.995Z,24.21
2019-02-23T03:19:47.969Z,23.66
2019-02-23T03:25:42.997Z,19.89
2019-02-23T03:31:37.989Z,24.12
2019-02-23T03:37:32.991Z,19.93
2019-02-23T03:43:27.983Z,18.17
2019-02-23T03:49:22.985Z,15.04
2019-02-23T03:55:18.017Z,16.57
2019-02-23T04:01:13.017Z,14.63
2019-02-23T04:07:08.019Z,11.63
2019-02-23T04:13:03.005Z,11.5
2019-02-23T04:18:58.008Z,11.3
2019-02-23T04:24:53.016Z,9.08
2019-02-23T04:30:48.106Z,8.43
2019-02-23T04:36:43.069Z,7.43
2019-02-23T04:42:38.026Z,6.69
2019-02-23T04:48:33.029Z,5.07
2019-02-23T04:54:28.011Z,4.67
2019-02-23T05:00:23.137Z,4.75
2019-02-23T05:06:18.031Z,4.59
2019-02-23T05:12:13.036Z,3.27
2019-02-23T05:18:08.062Z,2.9
2019-02-23T05:24:03.076Z,3.04
2019-02-23T05:29:58.068Z,3.05
2019-02-23T05:35:53.039Z,2.29
2019-02-23T05:41:48.045Z,2.56
2019-02-23T05:47:43.062Z,3.85
2019-02-23T05:53:38.123Z,2.94
2019-02-23T05:59:33.064Z,2.01
2019-02-23T06:05:28.072Z,1.93
2019-02-23T06:11:23.116Z,2.1
2019-02-23T06:17:18.085Z,1.88
2019-02-23T06:23:13.175Z,1.87
2019-02-23T06:29:08.106Z,2.26
2019-02-23T06:35:03.114Z,2.73
2019-02-23T06:40:58.135Z,3.03
2019-02-23T06:46:53.107Z,2.47
2019-02-23T06:52:48.086Z,1.84
2019-02-23T06:58:43.126Z,2.28
2019-02-23T07:04:38.126Z,3.04
2019-02-23T07:10:33.111Z,2
2019-02-23T07:16:28.097Z,2.26
2019-02-23T07:22:23.124Z,2.33
2019-02-23T07:28:18.091Z,2.32
2019-02-23T07:34:13.109Z,1.71
2019-02-23T07:40:08.108Z,1.64
2019-02-23T07:46:03.119Z,2.16
2019-02-23T07:51:58.130Z,2.32
2019-02-23T07:57:53.127Z,1.92
2019-02-23T08:03:48.134Z,2.04
2019-02-23T08:09:43.153Z,1.69
2019-02-23T08:15:38.136Z,1.73
2019-02-23T08:21:33.147Z,1.3
2019-02-23T08:27:28.131Z,2.38
2019-02-23T08:33:23.148Z,1.65
2019-02-23T08:39:18.148Z,1.76
2019-02-23T08:45:13.165Z,1.61
2019-02-23T08:51:08.170Z,1.87
2019-02-23T08:57:03.186Z,1.49
2019-02-23T09:02:58.162Z,2.16
2019-02-23T09:08:53.153Z,1.61
2019-02-23T09:14:48.156Z,1.69
2019-02-23T09:20:43.189Z,1.54
2019-02-23T09:26:38.190Z,1.47
2019-02-23T09:32:33.175Z,1.9
2019-02-23T09:38:28.221Z,1.97
2019-02-23T09:44:23.207Z,1.81
2019-02-23T09:50:18.189Z,1.91
2019-02-23T09:56:13.188Z,1.81
2019-02-23T10:02:08.222Z,2.65
2019-02-23T10:08:03.200Z,2.08
2019-02-23T10:13:58.190Z,1.68
2019-02-23T10:19:53.190Z,1.98
2019-02-23T10:25:48.223Z,1.66
2019-02-23T10:31:43.201Z,2.33
2019-02-23T10:37:38.200Z,3.32
2019-02-23T10:43:33.234Z,3.03
2019-02-23T10:49:28.199Z,3.11
2019-02-23T10:55:23.255Z,8.16
2019-02-23T11:01:18.217Z,3.86
2019-02-23T11:07:13.254Z,2.78
2019-02-23T11:13:08.234Z,2.09
2019-02-23T11:19:03.249Z,2.33
2019-02-23T11:24:58.318Z,2.05
2019-02-23T11:30:53.252Z,3.4
2019-02-23T11:36:48.314Z,2.05
2019-02-23T11:42:43.254Z,1.99
2019-02-23T11:48:38.251Z,2
2019-02-23T11:54:33.246Z,2.22
2019-02-23T12:00:28.295Z,2.36
2019-02-23T12:06:23.244Z,1.88
2019-02-23T12:12:18.287Z,1.83
2019-02-23T12:18:13.309Z,1.79
2019-02-23T12:24:08.292Z,1.43
2019-02-23T12:30:03.247Z,1.75
2019-02-23T12:35:58.267Z,1.5
2019-02-23T12:41:53.263Z,1.65
2019-02-23T12:47:48.282Z,1.49
2019-02-23T12:53:43.297Z,1.62
2019-02-23T12:59:38.312Z,1.54
2019-02-23T13:05:33.284Z,1.8
2019-02-23T13:11:28.297Z,1.44
2019-02-23T13:17:23.321Z,1.65
2019-02-23T13:23:18.298Z,1.58
2019-02-23T13:29:13.287Z,1.62
2019-02-23T13:35:08.369Z,1.63
2019-02-23T13:41:03.310Z,2.25
2019-02-23T13:46:58.315Z,1.53
2019-02-23T13:52:53.332Z,1.11
2019-02-23T13:58:48.307Z,1.34
2019-02-23T14:04:43.313Z,1.87
2019-02-23T14:10:38.312Z,1.84
2019-02-23T14:16:33.367Z,1.51
2019-02-23T14:22:28.352Z,1.17
2019-02-23T14:28:23.330Z,1.16
2019-02-23T14:34:18.364Z,1.91
2019-02-23T14:40:13.401Z,2.01
2019-02-23T14:46:08.408Z,2.82
2019-02-23T14:52:03.388Z,1.64
2019-02-23T14:57:58.413Z,1.43
2019-02-23T15:03:53.364Z,1.08
2019-02-23T15:09:48.395Z,0.85
2019-02-23T15:15:43.360Z,1.59
2019-02-23T15:21:38.352Z,1.31
2019-02-23T15:27:33.385Z,1.22
2019-02-23T15:33:28.889Z,1.39
2019-02-23T15:39:23.374Z,1.1
2019-02-23T15:45:18.446Z,1.51
2019-02-23T15:51:13.442Z,1.35
2019-02-23T15:57:08.456Z,1.03
2019-02-23T16:03:03.426Z,3.66
2019-02-23T16:08:58.378Z,1.23
2019-02-23T16:14:53.420Z,1.07
2019-02-23T16:20:48.412Z,1.3
2019-02-23T16:26:43.405Z,1.26
2019-02-23T16:32:38.412Z,1.39
2019-02-23T16:38:33.444Z,0.97
2019-02-23T16:44:28.530Z,3.34
2019-02-23T16:50:23.422Z,2.97
2019-02-23T16:56:18.417Z,1.49
2019-02-23T17:02:13.451Z,1.35
2019-02-23T17:08:08.411Z,1.38
2019-02-23T17:14:03.443Z,1.2
2019-02-23T17:19:58.419Z,1.2
2019-02-23T17:26:03.666Z,1.16
2019-02-23T17:31:48.474Z,1.36
2019-02-23T17:37:43.445Z,1.25
2019-02-23T17:43:40.155Z,1.59
2019-02-23T17:49:33.453Z,1.23
2019-02-23T17:55:28.439Z,1.53
2019-02-23T18:01:23.447Z,1.08
2019-02-23T18:07:18.451Z,2.14
2019-02-23T18:13:13.472Z,1.25
2019-02-23T18:19:08.459Z,1.65
2019-02-23T18:25:03.490Z,2.93
2019-02-23T18:30:58.464Z,1.52
2019-02-23T18:36:53.497Z,1.4
2019-02-23T18:42:48.479Z,1.77
2019-02-23T18:48:43.503Z,1.54
2019-02-23T18:54:38.490Z,1.68
2019-02-23T19:00:33.487Z,1.59
2019-02-23T19:06:28.521Z,1.43
2019-02-23T19:12:23.483Z,1.23
2019-02-23T19:18:19.007Z,2.94
2019-02-23T19:24:13.489Z,2.02
2019-02-23T19:30:08.529Z,3.06
2019-02-23T19:36:03.499Z,3.76
2019-02-23T19:41:58.517Z,3.54
2019-02-23T19:47:53.500Z,2.44
2019-02-23T19:53:48.549Z,2.96
2019-02-23T19:59:43.536Z,1.55
2019-02-23T20:05:38.511Z,4.26
2019-02-23T20:11:33.591Z,4.07
2019-02-23T20:17:28.526Z,3.92
2019-02-23T20:23:23.518Z,4.08
2019-02-23T20:29:18.522Z,3.16
2019-02-23T20:35:13.543Z,1.75
2019-02-23T20:41:08.539Z,1.57
2019-02-23T20:47:03.546Z,1.64
2019-02-23T20:52:58.570Z,3.37
2019-02-23T20:58:53.544Z,3.15
2019-02-23T21:04:48.603Z,2.18
2019-02-23T21:10:43.579Z,2.15
2019-02-23T21:16:38.562Z,2.65
2019-02-23T21:22:33.567Z,1.48
2019-02-23T21:28:28.582Z,3.73
2019-02-23T21:34:23.578Z,1.66
2019-02-23T21:40:18.574Z,2.39
2019-02-23T21:46:14.015Z,3.53
2019-02-23T21:52:08.597Z,3.37
2019-02-23T21:58:03.579Z,2.82
2019-02-23T22:03:58.596Z,1.72
2019-02-23T22:09:53.574Z,1.59
2019-02-23T22:15:48.592Z,1.48
2019-02-23T22:21:43.612Z,1.63
2019-02-23T22:27:38.656Z,1.99
2019-02-23T22:33:33.626Z,1.74
2019-02-23T22:39:28.597Z,1.99
2019-02-23T22:45:23.605Z,2.35
2019-02-23T22:51:18.600Z,1.76
2019-02-23T22:57:13.615Z,1.71
2019-02-23T23:03:08.632Z,3.08
2019-02-23T23:09:03.638Z,2.37
2019-02-23T23:14:58.604Z,1.62
2019-02-23T23:20:53.629Z,1.84
2019-02-23T23:26:48.641Z,2.23
2019-02-23T23:32:43.624Z,1.53
2019-02-23T23:38:38.669Z,1.75
2019-02-23T23:44:33.636Z,2.29
2019-02-23T23:50:28.659Z,1.94
2019-02-23T23:56:23.661Z,1.68
